Terminal Aerodrome Forecast
Issued by NWS

Current Version | Previous Version | Text Only | Print | Product List | Glossary On
Versions: 1 2 3 4 5 6 7 8 9 10 11 12
000
FTAK31 PAJN 011700
TAFAGY
TAF
PAGY 011721Z 0118/0218 20008KT P6SM SCT050 BKN070
     FM020000 21003KT P6SM VCSH BKN050 OVC100
     FM020600 20005KT P6SM -RA SCT015 OVC030
     FM020900 20013G17KT P6SM -RA SCT010 OVC025
     FM021500 20021G29KT P6SM -SHRA SCT015 OVC030
      AMD LTD TO CLD VIS AND WIND=

USA.gov is the U.S. government's official web portal to all federal, state and local government web resources and services.